Time;durP1;ratioP1;P1;durP2;ratioP2;P2;SDS_P1;SDS_P2;PMS_P1;PMS_P2;Temp;Humidity;BMP_temperature;BMP_pressure;BME280_temperature;BME280_humidity;BME280_pressure;Samples;Min_cycle;Max_cycle;Signal;HPM_P1;HPM_P2
2022/11/29 00:00:33;;;;;;;12.20;4.78;;;;;;;;;;4991175;28;20031;-73
2022/11/29 00:02:59;;;;;;;16.02;4.72;;;;;;;;;;4984896;28;20043;-73
2022/11/29 00:05:24;;;;;;;13.15;4.75;;;;;;;;;;4985982;28;20038;-73
2022/11/29 00:07:50;;;;;;;9.45;4.38;;;;;;;;;;4986342;28;20121;-73
2022/11/29 00:10:15;;;;;;;14.30;5.07;;;;;;;;;;4982939;28;20081;-73
2022/11/29 00:12:41;;;;;;;10.50;4.65;;;;;;;;;;4975809;28;20085;-74
2022/11/29 00:15:07;;;;;;;12.05;4.68;;;;;;;;;;4975459;28;20031;-73
2022/11/29 00:17:32;;;;;;;13.07;4.22;;;;;;;;;;4982457;28;20418;-73
2022/11/29 00:19:57;;;;;;;13.07;4.70;;;;;;;;;;4984032;28;20038;-73
2022/11/29 00:22:24;;;;;;;9.68;4.75;;;;;;;;;;4983807;28;20041;-73
2022/11/29 00:24:50;;;;;;;18.08;4.80;;;;;;;;;;4978791;28;20118;-74
2022/11/29 00:27:15;;;;;;;32.35;5.85;;;;;;;;;;4984096;28;20038;-73
2022/11/29 00:29:40;;;;;;;17.27;5.15;;;;;;;;;;4979892;28;20027;-73
2022/11/29 00:32:06;;;;;;;12.73;4.47;;;;;;;;;;4981410;28;20120;-73
2022/11/29 00:34:31;;;;;;;20.88;5.63;;;;;;;;;;4988167;28;20359;-73
2022/11/29 00:36:56;;;;;;;11.85;4.95;;;;;;;;;;4986573;28;20119;-73
2022/11/29 00:39:22;;;;;;;10.88;5.00;;;;;;;;;;4981408;28;20172;-73
2022/11/29 00:41:47;;;;;;;8.65;4.55;;;;;;;;;;4981458;28;20030;-73
2022/11/29 00:44:13;;;;;;;11.68;4.70;;;;;;;;;;4981012;28;20045;-73
2022/11/29 00:46:38;;;;;;;13.32;4.88;;;;;;;;;;4980601;28;20050;-73
2022/11/29 00:49:04;;;;;;;10.60;4.00;;;;;;;;;;4973281;28;20034;-73
2022/11/29 00:51:29;;;;;;;14.80;4.53;;;;;;;;;;4982405;28;20482;-73
2022/11/29 00:53:55;;;;;;;8.35;4.10;;;;;;;;;;4978268;28;20039;-73
2022/11/29 00:56:20;;;;;;;8.68;3.45;;;;;;;;;;4983023;28;20030;-73
2022/11/29 00:58:47;;;;;;;9.18;4.18;;;;;;;;;;4983663;28;20062;-73
2022/11/29 01:01:13;;;;;;;26.05;4.53;;;;;;;;;;4987381;28;20042;-73
2022/11/29 01:03:38;;;;;;;7.68;4.28;;;;;;;;;;4977016;28;20529;-73
2022/11/29 01:06:07;;;;;;;17.48;3.75;;;;;;;;;;4975171;28;20060;-73
2022/11/29 01:08:32;;;;;;;8.18;3.42;;;;;;;;;;4982367;28;20043;-73
2022/11/29 01:11:21;;;;;;;12.75;3.28;;;;;;;;;;4986593;28;20041;-72
2022/11/29 01:13:49;;;;;;;6.60;3.40;;;;;;;;;;4988034;28;20038;-73
2022/11/29 01:16:15;;;;;;;8.90;3.78;;;;;;;;;;4984104;28;20030;-72
2022/11/29 01:18:40;;;;;;;4.53;2.72;;;;;;;;;;4988135;28;20045;-72
2022/11/29 01:21:09;;;;;;;8.90;3.65;;;;;;;;;;4990530;28;20038;-73
2022/11/29 01:23:35;;;;;;;20.30;3.55;;;;;;;;;;4975608;28;20019;-73
2022/11/29 01:26:08;;;;;;;10.40;3.83;;;;;;;;;;4986376;28;20501;-73
2022/11/29 01:28:34;;;;;;;8.13;4.00;;;;;;;;;;4993629;28;20043;-73
2022/11/29 01:31:07;;;;;;;9.23;3.25;;;;;;;;;;4979610;28;20462;-74
2022/11/29 01:33:34;;;;;;;11.18;3.55;;;;;;;;;;4984317;28;20042;-73
2022/11/29 01:35:59;;;;;;;9.60;3.00;;;;;;;;;;4986801;28;20049;-73
2022/11/29 01:38:24;;;;;;;15.13;4.22;;;;;;;;;;4983945;28;20038;-74
2022/11/29 01:41:02;;;;;;;5.63;3.05;;;;;;;;;;4984186;28;20062;-73
2022/11/29 01:43:28;;;;;;;9.45;3.20;;;;;;;;;;4978988;28;20044;-73
2022/11/29 01:45:54;;;;;;;7.38;3.40;;;;;;;;;;4983114;28;20121;-73
2022/11/29 01:48:28;;;;;;;9.10;3.60;;;;;;;;;;4995285;28;20049;-73
2022/11/29 01:50:56;;;;;;;4.47;2.90;;;;;;;;;;4991306;28;20039;-73
2022/11/29 01:53:21;;;;;;;12.00;3.67;;;;;;;;;;4980579;28;20038;-74
2022/11/29 01:55:55;;;;;;;8.65;3.80;;;;;;;;;;4984775;28;20371;-73
2022/11/29 01:58:21;;;;;;;;;;;;;;;;;;4992150;28;20038;-73
2022/11/29 02:00:46;;;;;;;17.27;3.45;;;;;;;;;;4979546;28;19961;-73
2022/11/29 02:03:14;;;;;;;10.35;3.50;;;;;;;;;;4979917;28;20078;-74
2022/11/29 02:05:47;;;;;;;9.90;2.92;;;;;;;;;;4967808;28;20046;-73
2022/11/29 02:08:15;;;;;;;10.55;2.95;;;;;;;;;;4988503;28;20046;-74
2022/11/29 02:10:50;;;;;;;7.05;2.70;;;;;;;;;;4986418;28;20073;-73
2022/11/29 02:13:31;;;;;;;8.80;3.45;;;;;;;;;;4995980;28;20435;-73
2022/11/29 02:16:05;;;;;;;9.25;3.20;;;;;;;;;;4988269;28;20387;-73
2022/11/29 02:18:55;;;;;;;6.93;2.97;;;;;;;;;;4987992;28;20031;-73
2022/11/29 02:21:31;;;;;;;9.27;2.60;;;;;;;;;;4981107;28;20151;-73
2022/11/29 02:24:15;;;;;;;8.70;2.35;;;;;;;;;;4988010;28;20057;-73
2022/11/29 02:26:56;;;;;;;13.70;2.92;;;;;;;;;;4988225;28;20516;-73
2022/11/29 02:29:59;;;;;;;9.13;2.25;;;;;;;;;;4991763;28;20062;-74
2022/11/29 02:32:49;;;;;;;5.78;2.97;;;;;;;;;;4987972;28;20038;-73
2022/11/29 02:35:38;;;;;;;4.95;2.08;;;;;;;;;;4980882;28;20035;-73
2022/11/29 02:38:16;;;;;;;11.00;2.80;;;;;;;;;;4998195;28;20364;-73
2022/11/29 02:41:06;;;;;;;5.07;2.47;;;;;;;;;;4973120;28;20117;-73
2022/11/29 02:43:53;;;;;;;8.35;2.53;;;;;;;;;;4979620;28;20062;-73
2022/11/29 02:46:46;;;;;;;3.13;1.85;;;;;;;;;;4982846;28;20035;-73
2022/11/29 02:49:26;;;;;;;7.65;2.35;;;;;;;;;;4970564;28;20053;-73
2022/11/29 02:52:06;;;;;;;9.75;2.80;;;;;;;;;;4980839;28;20505;-73
2022/11/29 02:54:40;;;;;;;7.18;2.40;;;;;;;;;;4981395;28;20035;-73
2022/11/29 02:57:27;;;;;;;5.40;1.65;;;;;;;;;;4984852;28;20058;-73
2022/11/29 03:00:06;;;;;;;5.82;2.58;;;;;;;;;;4965851;28;20406;-74
2022/11/29 03:02:35;;;;;;;5.60;2.28;;;;;;;;;;4989773;28;20356;-73
2022/11/29 03:05:18;;;;;;;4.47;2.55;;;;;;;;;;4994124;28;20043;-73
2022/11/29 03:07:47;;;;;;;7.95;2.22;;;;;;;;;;5019567;28;20116;-73
2022/11/29 03:10:31;;;;;;;11.82;2.97;;;;;;;;;;4971873;28;20514;-73
2022/11/29 03:12:58;;;;;;;3.00;1.55;;;;;;;;;;4980313;28;20049;-74
2022/11/29 03:16:14;;;;;;;4.05;2.20;;;;;;;;;;4987750;28;20517;-73
2022/11/29 03:18:55;;;;;;;7.10;2.30;;;;;;;;;;4978482;28;20382;-73
2022/11/29 03:21:45;;;;;;;12.30;2.08;;;;;;;;;;4974618;28;20046;-73
2022/11/29 03:24:50;;;;;;;6.13;2.17;;;;;;;;;;4977373;28;20066;-74
2022/11/29 03:27:21;;;;;;;12.07;2.72;;;;;;;;;;4984510;28;20046;-73
2022/11/29 03:29:54;;;;;;;4.60;2.15;;;;;;;;;;4980836;28;20026;-74
2022/11/29 03:32:28;;;;;;;3.88;1.92;;;;;;;;;;4984467;28;20117;-73
2022/11/29 03:35:05;;;;;;;6.15;1.88;;;;;;;;;;4980623;28;20031;-73
2022/11/29 03:38:02;;;;;;;4.40;1.83;;;;;;;;;;4991405;28;20402;-74
2022/11/29 03:40:49;;;;;;;5.00;1.60;;;;;;;;;;5012220;28;20066;-73
2022/11/29 03:43:22;;;;;;;5.50;1.95;;;;;;;;;;4965982;28;20051;-73
2022/11/29 03:45:52;;;;;;;4.07;1.77;;;;;;;;;;4985740;28;20030;-74
2022/11/29 03:48:26;;;;;;;10.43;2.38;;;;;;;;;;4987836;28;20042;-73
2022/11/29 03:50:55;;;;;;;;;;;;;;;;;;4984697;28;20031;-73
2022/11/29 03:53:53;;;;;;;3.25;1.45;;;;;;;;;;4976667;28;20397;-73
2022/11/29 03:56:27;;;;;;;4.50;2.13;;;;;;;;;;5009612;28;20058;-73
2022/11/29 03:59:07;;;;;;;3.53;1.80;;;;;;;;;;4985847;28;20031;-73
2022/11/29 04:01:51;;;;;;;3.53;1.60;;;;;;;;;;4981485;28;20035;-74
2022/11/29 04:04:26;;;;;;;7.35;2.10;;;;;;;;;;4986185;28;20070;-73
2022/11/29 04:06:54;;;;;;;5.22;2.08;;;;;;;;;;4980171;28;20042;-73
2022/11/29 04:09:41;;;;;;;6.40;2.00;;;;;;;;;;4991363;28;20038;-74
2022/11/29 04:12:43;;;;;;;5.20;2.00;;;;;;;;;;4964513;28;20039;-73
2022/11/29 04:15:27;;;;;;;9.55;1.67;;;;;;;;;;4980725;28;20077;-73
2022/11/29 04:17:58;;;;;;;2.10;1.13;;;;;;;;;;4983170;28;20042;-73
2022/11/29 04:20:49;;;;;;;5.60;1.73;;;;;;;;;;4991809;28;20053;-73
2022/11/29 04:23:36;;;;;;;9.23;2.70;;;;;;;;;;4975172;28;20058;-73
2022/11/29 04:26:36;;;;;;;8.10;3.00;;;;;;;;;;4978112;28;20038;-73
2022/11/29 04:29:34;;;;;;;5.45;2.72;;;;;;;;;;4991350;28;20050;-73
2022/11/29 04:32:30;;;;;;;6.43;2.50;;;;;;;;;;4983367;28;20058;-74
2022/11/29 04:34:58;;;;;;;3.97;2.03;;;;;;;;;;4980322;28;20053;-73
2022/11/29 04:37:34;;;;;;;5.88;2.28;;;;;;;;;;4976818;28;20039;-73
2022/11/29 04:40:12;;;;;;;9.50;1.90;;;;;;;;;;4982659;28;20034;-73
2022/11/29 04:42:59;;;;;;;5.68;2.15;;;;;;;;;;4991008;28;20038;-73
2022/11/29 04:46:07;;;;;;;3.92;2.00;;;;;;;;;;4984310;28;20030;-73
2022/11/29 04:48:47;;;;;;;4.45;1.90;;;;;;;;;;4982051;28;20054;-74
2022/11/29 04:51:48;;;;;;;5.88;2.30;;;;;;;;;;4991633;28;20033;-73
2022/11/29 04:54:26;;;;;;;5.20;1.77;;;;;;;;;;4986088;28;20069;-73
2022/11/29 04:57:15;;;;;;;8.38;2.17;;;;;;;;;;4958496;28;20161;-73
2022/11/29 04:59:52;;;;;;;12.90;2.80;;;;;;;;;;4977722;28;20054;-73
2022/11/29 05:02:48;;;;;;;12.48;2.65;;;;;;;;;;4966509;28;20023;-73
2022/11/29 05:05:28;;;;;;;12.43;2.75;;;;;;;;;;4981240;28;20038;-73
2022/11/29 05:08:03;;;;;;;8.35;2.75;;;;;;;;;;4991815;28;20081;-73
2022/11/29 05:10:50;;;;;;;15.43;2.38;;;;;;;;;;4980725;28;20126;-73
2022/11/29 05:13:56;;;;;;;12.23;2.72;;;;;;;;;;4983576;28;20062;-73
2022/11/29 05:16:48;;;;;;;8.68;2.33;;;;;;;;;;4964674;28;20035;-73
2022/11/29 05:19:32;;;;;;;10.07;2.13;;;;;;;;;;4981105;28;20057;-73
2022/11/29 05:22:33;;;;;;;13.15;2.10;;;;;;;;;;4990301;28;20046;-73
2022/11/29 05:25:30;;;;;;;22.48;2.63;;;;;;;;;;4987731;28;20051;-73
2022/11/29 05:28:15;;;;;;;20.52;2.17;;;;;;;;;;4960982;28;20058;-73
2022/11/29 05:30:43;;;;;;;;;;;;;;;;;;4975458;28;20034;-73
2022/11/29 05:33:08;;;;;;;17.42;2.83;;;;;;;;;;4985518;28;20004;-73
2022/11/29 05:35:58;;;;;;;22.10;2.38;;;;;;;;;;4983570;28;20122;-73
2022/11/29 05:38:47;;;;;;;24.35;2.67;;;;;;;;;;4982305;28;20085;-73
2022/11/29 05:41:40;;;;;;;7.82;2.13;;;;;;;;;;4979394;28;20113;-73
2022/11/29 05:44:18;;;;;;;33.40;2.85;;;;;;;;;;4981386;28;20035;-73
2022/11/29 05:46:57;;;;;;;27.45;3.05;;;;;;;;;;4981064;28;20059;-73
2022/11/29 05:49:28;;;;;;;14.85;2.10;;;;;;;;;;4979572;28;20061;-73
2022/11/29 05:52:16;;;;;;;29.58;2.50;;;;;;;;;;4975183;28;20027;-73
2022/11/29 05:55:09;;;;;;;7.28;2.15;;;;;;;;;;4980171;28;20125;-73
2022/11/29 05:57:41;;;;;;;19.92;2.25;;;;;;;;;;4991800;28;20037;-73
2022/11/29 06:00:10;;;;;;;13.25;2.45;;;;;;;;;;4991815;28;20046;-73
2022/11/29 06:02:48;;;;;;;20.05;3.00;;;;;;;;;;4979236;28;20053;-73
2022/11/29 06:05:36;;;;;;;14.68;2.33;;;;;;;;;;4979365;28;20046;-73
2022/11/29 06:08:23;;;;;;;39.88;4.18;;;;;;;;;;5000373;28;20035;-73
2022/11/29 06:10:59;;;;;;;20.10;2.50;;;;;;;;;;4981760;28;20097;-73
2022/11/29 06:14:06;;;;;;;28.83;2.75;;;;;;;;;;4982133;28;20029;-73
2022/11/29 06:16:34;;;;;;;30.75;2.58;;;;;;;;;;4989822;28;20471;-73
2022/11/29 06:19:28;;;;;;;10.25;2.00;;;;;;;;;;4984517;28;20026;-73
2022/11/29 06:22:04;;;;;;;17.65;2.38;;;;;;;;;;4978443;28;20125;-73
2022/11/29 06:24:40;;;;;;;20.23;2.55;;;;;;;;;;4981912;28;20450;-73
2022/11/29 06:27:12;;;;;;;7.47;2.22;;;;;;;;;;4982131;28;20505;-73
2022/11/29 06:29:41;;;;;;;9.90;2.08;;;;;;;;;;4985417;28;20030;-73
2022/11/29 06:32:12;;;;;;;3.70;1.92;;;;;;;;;;4993755;28;20050;-73
2022/11/29 06:34:58;;;;;;;8.05;2.13;;;;;;;;;;4978656;28;20478;-73
2022/11/29 06:37:30;;;;;;;52.58;3.42;;;;;;;;;;4983012;28;20042;-73
2022/11/29 06:39:56;;;;;;;30.73;2.60;;;;;;;;;;4983870;28;20086;-73
2022/11/29 06:42:21;;;;;;;11.77;2.08;;;;;;;;;;4989224;28;20524;-73
2022/11/29 06:44:47;;;;;;;20.02;2.38;;;;;;;;;;4980377;28;20035;-73
2022/11/29 06:47:35;;;;;;;12.30;1.95;;;;;;;;;;4979346;28;20046;-73
2022/11/29 06:50:38;;;;;;;7.53;2.15;;;;;;;;;;4979551;28;20070;-73
2022/11/29 06:53:15;;;;;;;8.75;2.10;;;;;;;;;;4984774;28;20034;-73
2022/11/29 06:56:15;;;;;;;13.40;2.22;;;;;;;;;;4980858;28;20034;-73
2022/11/29 06:58:45;;;;;;;14.30;2.45;;;;;;;;;;4988511;28;20113;-73
2022/11/29 07:01:19;;;;;;;31.85;2.97;;;;;;;;;;5006860;28;20047;-73
2022/11/29 07:04:06;;;;;;;20.20;2.42;;;;;;;;;;4980704;28;20133;-73
2022/11/29 07:06:33;;;;;;;54.55;3.72;;;;;;;;;;4988021;28;20446;-74
2022/11/29 07:09:18;;;;;;;12.13;2.55;;;;;;;;;;4973881;28;20506;-73
2022/11/29 07:11:45;;;;;;;27.52;3.22;;;;;;;;;;4983802;28;20047;-73
2022/11/29 07:14:11;;;;;;;7.68;2.30;;;;;;;;;;4989899;28;20137;-73
2022/11/29 07:16:55;;;;;;;10.13;2.53;;;;;;;;;;4988038;28;20534;-73
2022/11/29 07:19:34;;;;;;;7.70;2.30;;;;;;;;;;4991188;28;20080;-73
2022/11/29 07:22:07;;;;;;;15.07;1.92;;;;;;;;;;4989217;28;20391;-73
2022/11/29 07:24:57;;;;;;;11.93;2.00;;;;;;;;;;4988590;28;20114;-73
2022/11/29 07:27:34;;;;;;;11.63;2.47;;;;;;;;;;4979065;28;20039;-73
2022/11/29 07:30:12;;;;;;;6.72;1.65;;;;;;;;;;4981314;28;20097;-73
2022/11/29 07:32:47;;;;;;;15.77;2.58;;;;;;;;;;4986092;28;20034;-73
2022/11/29 07:35:20;;;;;;;11.20;2.90;;;;;;;;;;4979556;28;20050;-73
2022/11/29 07:37:58;;;;;;;5.40;1.85;;;;;;;;;;4979036;28;20430;-73
2022/11/29 07:40:31;;;;;;;4.63;1.83;;;;;;;;;;4972898;28;20430;-73
2022/11/29 07:43:15;;;;;;;5.20;1.90;;;;;;;;;;4987398;28;20041;-73
2022/11/29 07:45:41;;;;;;;7.60;2.47;;;;;;;;;;4993365;28;20034;-73
2022/11/29 07:48:09;;;;;;;9.38;2.63;;;;;;;;;;4988614;28;20054;-73
2022/11/29 07:50:35;;;;;;;11.35;1.52;;;;;;;;;;4990759;28;20053;-73
2022/11/29 07:53:00;;;;;;;24.73;2.67;;;;;;;;;;4987262;28;20038;-73
2022/11/29 07:55:28;;;;;;;19.08;2.95;;;;;;;;;;4981140;28;20030;-73
2022/11/29 07:57:53;;;;;;;16.50;1.98;;;;;;;;;;4977448;28;20101;-73
2022/11/29 08:00:19;;;;;;;19.40;2.15;;;;;;;;;;4977570;28;20043;-74
2022/11/29 08:02:46;;;;;;;37.35;2.72;;;;;;;;;;4991529;28;20034;-74
2022/11/29 08:05:11;;;;;;;28.27;2.53;;;;;;;;;;4993254;28;20045;-73
2022/11/29 08:07:38;;;;;;;58.47;3.25;;;;;;;;;;4981669;28;20034;-72
2022/11/29 08:10:08;;;;;;;96.97;4.80;;;;;;;;;;4985611;28;20042;-73
2022/11/29 08:12:33;;;;;;;29.27;2.67;;;;;;;;;;4987304;28;20042;-72
2022/11/29 08:14:59;;;;;;;15.10;2.10;;;;;;;;;;4982854;28;20038;-73
2022/11/29 08:17:25;;;;;;;7.43;2.08;;;;;;;;;;4987047;28;20497;-73
2022/11/29 08:19:50;;;;;;;12.13;1.80;;;;;;;;;;4984105;28;20031;-73
2022/11/29 08:22:16;;;;;;;11.43;1.80;;;;;;;;;;4985597;28;20038;-73
2022/11/29 08:24:41;;;;;;;6.88;1.73;;;;;;;;;;4979856;28;20027;-73
2022/11/29 08:27:07;;;;;;;6.47;2.10;;;;;;;;;;4983612;28;20038;-73
2022/11/29 08:29:32;;;;;;;12.70;2.20;;;;;;;;;;4990113;28;20042;-72
2022/11/29 08:31:57;;;;;;;14.48;2.08;;;;;;;;;;4993563;28;20030;-76
2022/11/29 08:34:23;;;;;;;10.40;2.25;;;;;;;;;;5001062;28;20077;-73
2022/11/29 08:36:50;;;;;;;21.35;2.55;;;;;;;;;;4987982;28;20042;-72
2022/11/29 08:39:16;;;;;;;13.65;2.22;;;;;;;;;;4987729;28;20054;-73
2022/11/29 08:41:41;;;;;;;33.97;2.90;;;;;;;;;;4973761;28;20053;-72
2022/11/29 08:44:07;;;;;;;11.82;2.20;;;;;;;;;;4979682;28;20046;-73
2022/11/29 08:49:17;;;;;;;20.55;2.65;;;;;;;;;;4979152;28;20056;-73
2022/11/29 08:51:42;;;;;;;5.25;2.40;;;;;;;;;;4987403;28;20034;-73
2022/11/29 08:54:07;;;;;;;32.38;3.47;;;;;;;;;;4992852;28;20042;-74
2022/11/29 08:56:35;;;;;;;76.50;4.95;;;;;;;;;;4990208;28;20031;-73
2022/11/29 08:59:01;;;;;;;30.58;4.10;;;;;;;;;;4983010;28;20042;-72
2022/11/29 09:01:27;;;;;;;13.90;3.30;;;;;;;;;;4979328;28;20045;-72
2022/11/29 09:04:01;;;;;;;37.85;4.22;;;;;;;;;;4979295;28;20026;-72
2022/11/29 09:06:37;;;;;;;7.15;2.75;;;;;;;;;;4982432;28;20145;-72
2022/11/29 09:09:03;;;;;;;51.60;4.38;;;;;;;;;;4988338;28;20050;-73
2022/11/29 09:11:29;;;;;;;36.03;3.83;;;;;;;;;;4986772;28;20561;-72
2022/11/29 09:13:57;;;;;;;50.33;4.80;;;;;;;;;;4981513;28;20038;-72
2022/11/29 09:16:25;;;;;;;6.55;3.00;;;;;;;;;;4985363;28;20037;-72
2022/11/29 09:18:51;;;;;;;24.98;3.97;;;;;;;;;;4982770;28;20039;-73
2022/11/29 09:21:17;;;;;;;18.38;3.50;;;;;;;;;;4988465;28;20049;-73
2022/11/29 09:23:43;;;;;;;22.55;3.35;;;;;;;;;;4981153;28;20034;-73
2022/11/29 09:26:10;;;;;;;29.25;4.32;;;;;;;;;;4979092;28;20042;-74
2022/11/29 09:28:36;;;;;;;15.93;3.13;;;;;;;;;;4967961;28;20039;-73
2022/11/29 09:31:06;;;;;;;27.10;3.95;;;;;;;;;;4986997;28;20122;-73
2022/11/29 09:33:31;;;;;;;70.60;4.93;;;;;;;;;;4969878;28;20661;-73
2022/11/29 09:35:57;;;;;;;94.50;5.45;;;;;;;;;;4979158;28;20063;-74
2022/11/29 09:38:23;;;;;;;23.98;3.38;;;;;;;;;;4975881;28;20038;-73
2022/11/29 09:40:55;;;;;;;73.50;6.05;;;;;;;;;;4983407;28;20039;-72
2022/11/29 09:43:48;;;;;;;136.85;6.72;;;;;;;;;;4976693;28;20038;-73
2022/11/29 09:46:31;;;;;;;54.35;4.15;;;;;;;;;;4984748;28;20487;-73
2022/11/29 09:49:19;;;;;;;16.80;2.83;;;;;;;;;;4984376;28;20074;-73
2022/11/29 09:52:06;;;;;;;36.13;3.75;;;;;;;;;;4971331;28;20039;-73
2022/11/29 09:54:57;;;;;;;26.30;3.05;;;;;;;;;;4977840;28;20037;-73
2022/11/29 09:57:23;;;;;;;37.60;3.55;;;;;;;;;;4981539;28;20038;-73
2022/11/29 09:59:53;;;;;;;127.03;6.25;;;;;;;;;;4986515;28;20046;-72
2022/11/29 10:02:32;;;;;;;94.88;5.03;;;;;;;;;;4982220;28;20058;-73
2022/11/29 10:05:21;;;;;;;39.80;3.45;;;;;;;;;;4982115;28;20030;-73
2022/11/29 10:07:49;;;;;;;17.50;2.75;;;;;;;;;;4984102;28;20034;-73
2022/11/29 10:10:23;;;;;;;27.55;3.50;;;;;;;;;;4979913;28;20039;-76
2022/11/29 10:12:55;;;;;;;11.00;2.83;;;;;;;;;;4983308;28;20038;-73
2022/11/29 10:15:38;;;;;;;13.27;2.10;;;;;;;;;;4983049;28;20494;-73
2022/11/29 10:18:16;;;;;;;20.42;2.50;;;;;;;;;;4980688;28;20019;-73
2022/11/29 10:20:42;;;;;;;15.32;2.83;;;;;;;;;;4973124;28;20035;-73
2022/11/29 10:23:20;;;;;;;81.50;4.57;;;;;;;;;;4981874;28;20489;-73
2022/11/29 10:25:47;;;;;;;31.98;3.03;;;;;;;;;;4984200;28;20038;-73
2022/11/29 10:28:18;;;;;;;57.78;4.00;;;;;;;;;;4988183;28;20046;-73
2022/11/29 10:30:44;;;;;;;41.95;3.85;;;;;;;;;;4994857;28;20046;-73
2022/11/29 10:33:22;;;;;;;16.15;2.75;;;;;;;;;;4982415;28;20041;-73
2022/11/29 10:35:50;;;;;;;28.27;3.72;;;;;;;;;;4983596;28;20058;-73
2022/11/29 10:38:15;;;;;;;44.97;3.95;;;;;;;;;;4981092;28;20415;-73
2022/11/29 10:40:44;;;;;;;43.05;3.40;;;;;;;;;;4990049;28;20038;-73
2022/11/29 10:43:10;;;;;;;44.80;3.97;;;;;;;;;;4984013;28;20411;-73
2022/11/29 10:45:49;;;;;;;52.05;4.72;;;;;;;;;;4986317;28;20042;-73
2022/11/29 10:48:30;;;;;;;62.72;4.32;;;;;;;;;;5008280;28;20418;-73
2022/11/29 10:50:56;;;;;;;85.50;5.75;;;;;;;;;;5021790;28;20388;-72
2022/11/29 10:53:24;;;;;;;56.72;4.32;;;;;;;;;;4983564;28;20049;-73
2022/11/29 10:56:28;;;;;;;80.35;5.45;;;;;;;;;;4982694;28;20402;-73
2022/11/29 10:59:07;;;;;;;36.78;3.90;;;;;;;;;;4985893;28;20410;-73
2022/11/29 11:01:37;;;;;;;51.17;4.28;;;;;;;;;;4982815;28;20039;-73
2022/11/29 11:04:06;;;;;;;29.85;3.63;;;;;;;;;;4981400;28;20051;-73
2022/11/29 11:06:46;;;;;;;68.03;4.82;;;;;;;;;;4982317;28;20037;-73
2022/11/29 11:09:19;;;;;;;48.70;4.22;;;;;;;;;;4976619;28;20046;-73
2022/11/29 11:11:52;;;;;;;51.13;4.97;;;;;;;;;;4979420;28;20027;-73
2022/11/29 11:14:29;;;;;;;44.10;4.53;;;;;;;;;;4983433;28;20050;-73
2022/11/29 11:16:55;;;;;;;106.00;6.45;;;;;;;;;;4985806;28;20279;-73
2022/11/29 11:19:30;;;;;;;37.28;4.47;;;;;;;;;;4986229;28;20042;-73
2022/11/29 11:22:01;;;;;;;85.80;5.80;;;;;;;;;;4977083;28;20068;-73
2022/11/29 11:24:30;;;;;;;42.00;4.10;;;;;;;;;;4977881;28;20397;-73
2022/11/29 11:26:56;;;;;;;52.85;4.78;;;;;;;;;;4975969;28;20034;-73
2022/11/29 11:29:24;;;;;;;66.07;5.43;;;;;;;;;;4980834;28;20054;-73
2022/11/29 11:31:55;;;;;;;46.97;4.47;;;;;;;;;;4981250;28;20399;-73
2022/11/29 11:34:35;;;;;;;55.03;4.90;;;;;;;;;;4978448;28;20027;-73
2022/11/29 11:37:12;;;;;;;41.05;4.35;;;;;;;;;;4979918;28;20057;-73
2022/11/29 11:39:37;;;;;;;26.85;4.70;;;;;;;;;;4983144;28;20368;-73
2022/11/29 11:44:51;;;;;;;36.33;3.83;;;;;;;;;;4971932;28;20038;-73
2022/11/29 11:47:16;;;;;;;20.70;4.28;;;;;;;;;;4985305;28;20077;-73
2022/11/29 11:49:52;;;;;;;49.58;5.35;;;;;;;;;;4986737;28;20033;-73
2022/11/29 11:52:20;;;;;;;27.27;4.57;;;;;;;;;;4992952;28;20053;-73
2022/11/29 11:54:50;;;;;;;56.75;5.75;;;;;;;;;;4987341;28;20094;-73
2022/11/29 11:57:17;;;;;;;42.65;5.13;;;;;;;;;;4986249;28;20031;-73
2022/11/29 11:59:47;;;;;;;22.73;4.65;;;;;;;;;;4969318;28;20053;-74
2022/11/29 12:02:38;;;;;;;44.88;4.93;;;;;;;;;;4988322;28;20038;-73
2022/11/29 12:05:09;;;;;;;36.05;5.15;;;;;;;;;;4975345;28;20039;-73
2022/11/29 12:07:40;;;;;;;33.60;5.65;;;;;;;;;;4986900;28;20064;-73
2022/11/29 12:10:14;;;;;;;62.67;5.30;;;;;;;;;;4975955;28;20088;-73
2022/11/29 12:12:40;;;;;;;64.43;5.88;;;;;;;;;;4972844;28;20034;-73
2022/11/29 12:15:13;;;;;;;24.23;4.88;;;;;;;;;;4982767;28;20035;-73
2022/11/29 12:18:16;;;;;;;22.80;5.82;;;;;;;;;;4985461;28;20041;-75
2022/11/29 12:20:47;;;;;;;27.15;5.32;;;;;;;;;;4974315;28;20068;-73
2022/11/29 12:23:13;;;;;;;50.45;5.22;;;;;;;;;;4988190;28;20041;-73
2022/11/29 12:25:46;;;;;;;37.85;5.47;;;;;;;;;;4985402;28;20034;-74
2022/11/29 12:28:13;;;;;;;20.27;4.55;;;;;;;;;;4976129;28;20445;-74
2022/11/29 12:30:46;;;;;;;22.75;4.75;;;;;;;;;;4973388;28;20089;-74
2022/11/29 12:33:19;;;;;;;33.50;10.38;;;;;;;;;;4987218;28;20042;-73
2022/11/29 12:35:59;;;;;;;49.58;14.10;;;;;;;;;;4981098;28;20042;-74
2022/11/29 12:38:50;;;;;;;29.10;5.35;;;;;;;;;;4973768;28;20035;-73
2022/11/29 12:41:31;;;;;;;45.17;5.53;;;;;;;;;;4980210;28;20026;-74
2022/11/29 12:44:36;;;;;;;20.58;4.35;;;;;;;;;;4973043;28;20475;-73
2022/11/29 12:47:11;;;;;;;21.48;4.57;;;;;;;;;;5000088;28;20182;-73
2022/11/29 12:49:48;;;;;;;20.63;5.57;;;;;;;;;;4969541;28;20402;-73
2022/11/29 12:52:20;;;;;;;22.60;4.28;;;;;;;;;;5011575;28;20382;-73
2022/11/29 12:55:07;;;;;;;161.18;11.13;;;;;;;;;;4977304;28;20137;-71
2022/11/29 12:57:51;;;;;;;117.25;8.93;;;;;;;;;;4974719;28;20112;-71
2022/11/29 13:00:19;;;;;;;58.22;5.68;;;;;;;;;;4979428;28;20251;-70
2022/11/29 13:03:06;;;;;;;80.55;6.20;;;;;;;;;;4956174;28;20031;-71
2022/11/29 13:05:34;;;;;;;80.13;6.93;;;;;;;;;;4962752;28;20046;-71
2022/11/29 13:08:15;;;;;;;102.35;7.60;;;;;;;;;;4974485;28;20501;-70
2022/11/29 13:11:07;;;;;;;145.00;9.45;;;;;;;;;;4968158;28;20549;-71
2022/11/29 13:13:38;;;;;;;153.68;9.38;;;;;;;;;;4975135;28;20077;-71
2022/11/29 13:16:25;;;;;;;131.93;9.18;;;;;;;;;;4979488;28;20042;-71
2022/11/29 13:18:55;;;;;;;81.40;7.88;;;;;;;;;;4977942;28;20034;-70
2022/11/29 13:21:32;;;;;;;107.45;9.63;;;;;;;;;;4979684;28;20121;-70
2022/11/29 13:24:08;;;;;;;134.32;10.07;;;;;;;;;;4974991;28;20035;-70
2022/11/29 13:26:33;;;;;;;84.18;6.38;;;;;;;;;;4991346;28;20046;-70
2022/11/29 13:29:00;;;;;;;139.23;10.25;;;;;;;;;;4986917;28;20026;-70
2022/11/29 13:31:25;;;;;;;116.88;8.95;;;;;;;;;;4987202;28;20042;-70
2022/11/29 13:34:14;;;;;;;83.25;7.95;;;;;;;;;;4984084;28;20042;-70
2022/11/29 13:36:56;;;;;;;120.43;9.07;;;;;;;;;;4985054;28;20227;-71
2022/11/29 13:39:37;;;;;;;94.50;6.47;;;;;;;;;;4971213;28;20117;-71
2022/11/29 13:42:36;;;;;;;88.50;7.10;;;;;;;;;;4980535;28;20505;-70
2022/11/29 13:45:14;;;;;;;98.82;7.88;;;;;;;;;;4981784;28;20063;-70
2022/11/29 13:47:54;;;;;;;113.82;7.45;;;;;;;;;;4982503;28;20101;-71
2022/11/29 13:50:42;;;;;;;75.22;7.15;;;;;;;;;;4986710;28;20042;-71
2022/11/29 13:53:17;;;;;;;70.50;6.40;;;;;;;;;;4984917;28;20042;-70
2022/11/29 13:56:01;;;;;;;91.85;6.80;;;;;;;;;;4975211;28;20035;-70
2022/11/29 13:58:32;;;;;;;74.78;7.03;;;;;;;;;;4979421;28;20046;-70
2022/11/29 14:01:05;;;;;;;76.32;6.20;;;;;;;;;;4986762;28;20072;-70
2022/11/29 14:03:32;;;;;;;68.15;6.20;;;;;;;;;;4991407;28;20042;-70
2022/11/29 14:06:01;;;;;;;151.63;8.75;;;;;;;;;;4976958;28;20498;-70
2022/11/29 14:08:32;;;;;;;92.10;7.30;;;;;;;;;;4977882;28;20046;-71
2022/11/29 14:11:01;;;;;;;56.60;6.55;;;;;;;;;;4979104;28;20034;-70
2022/11/29 14:13:31;;;;;;;52.25;6.15;;;;;;;;;;4991113;28;20053;-71
2022/11/29 14:15:58;;;;;;;85.60;7.88;;;;;;;;;;4989640;28;20180;-70
2022/11/29 14:18:35;;;;;;;102.43;8.40;;;;;;;;;;4984617;28;20045;-71
2022/11/29 14:21:02;;;;;;;106.63;10.68;;;;;;;;;;4973052;28;20030;-70
2022/11/29 14:23:39;;;;;;;140.20;10.10;;;;;;;;;;4990338;28;20063;-71
2022/11/29 14:26:05;;;;;;;92.07;7.70;;;;;;;;;;4975599;28;20546;-71
2022/11/29 14:28:35;;;;;;;116.03;9.65;;;;;;;;;;4983922;28;20125;-70
2022/11/29 14:31:01;;;;;;;107.18;9.70;;;;;;;;;;4983019;28;20030;-70
2022/11/29 14:33:45;;;;;;;89.50;9.60;;;;;;;;;;4982872;28;20060;-72
2022/11/29 14:36:13;;;;;;;56.30;8.45;;;;;;;;;;4981945;28;20042;-71
2022/11/29 14:39:06;;;;;;;72.30;9.07;;;;;;;;;;4989964;28;20042;-70
2022/11/29 14:41:49;;;;;;;63.70;7.80;;;;;;;;;;4993403;28;20038;-70
2022/11/29 14:44:19;;;;;;;79.43;8.18;;;;;;;;;;4982403;28;20041;-70
2022/11/29 14:46:46;;;;;;;117.03;9.18;;;;;;;;;;4977819;28;20384;-70
2022/11/29 14:49:23;;;;;;;124.50;10.07;;;;;;;;;;4980502;28;20045;-70
2022/11/29 14:52:14;;;;;;;103.07;8.90;;;;;;;;;;4992655;28;20092;-70
2022/11/29 14:54:55;;;;;;;118.18;9.68;;;;;;;;;;4974940;28;20398;-70
2022/11/29 14:57:54;;;;;;;89.38;10.55;;;;;;;;;;4993112;28;20045;-71
2022/11/29 15:00:25;;;;;;;122.43;10.93;;;;;;;;;;4983129;28;20031;-71
2022/11/29 15:02:57;;;;;;;173.05;10.75;;;;;;;;;;4962887;28;20452;-71
2022/11/29 15:05:31;;;;;;;87.13;10.43;;;;;;;;;;4979163;28;20390;-72
2022/11/29 15:08:18;;;;;;;125.43;11.15;;;;;;;;;;4958188;28;20399;-71
2022/11/29 15:10:48;;;;;;;115.75;10.73;;;;;;;;;;4971250;28;20027;-71
2022/11/29 15:13:18;;;;;;;182.10;12.43;;;;;;;;;;4979088;28;20046;-71
2022/11/29 15:16:18;;;;;;;153.45;12.07;;;;;;;;;;4987314;28;20035;-71
2022/11/29 15:19:09;;;;;;;120.75;10.20;;;;;;;;;;4974450;28;20062;-71
2022/11/29 15:22:08;;;;;;;167.43;11.27;;;;;;;;;;4990716;28;20398;-71
2022/11/29 15:24:53;;;;;;;141.05;10.27;;;;;;;;;;4984099;28;20049;-71
2022/11/29 15:27:19;;;;;;;108.00;9.70;;;;;;;;;;4981909;28;20030;-71